Time;durP1;ratioP1;P1;durP2;ratioP2;P2;SDS_P1;SDS_P2;PMS_P1;PMS_P2;Temp;Humidity;BMP_temperature;BMP_pressure;BME280_temperature;BME280_humidity;BME280_pressure;Samples;Min_cycle;Max_cycle;Signal;HPM_P1;HPM_P2
2023/06/12 00:01:21;;;;;;;7.20;6.50;;;19.40;99.90;;;;;;6106074;23;20410;-83
2023/06/12 00:03:49;;;;;;;7.43;6.77;;;19.30;99.90;;;;;;6104659;23;20442;-83
2023/06/12 00:06:17;;;;;;;6.50;5.63;;;19.40;99.90;;;;;;6105958;23;20461;-85
2023/06/12 00:08:44;;;;;;;7.40;6.50;;;19.30;99.90;;;;;;6105899;23;20410;-84
2023/06/12 00:11:13;;;;;;;8.53;6.57;;;19.30;99.90;;;;;;6106489;23;20407;-84
2023/06/12 00:13:41;;;;;;;8.77;6.73;;;19.30;99.90;;;;;;6116202;23;20410;-84
2023/06/12 00:16:08;;;;;;;8.17;6.33;;;19.50;1.00;;;;;;6116562;23;20509;-85
2023/06/12 00:18:38;;;;;;;8.03;6.60;;;18.90;1.00;;;;;;6112837;23;20962;-83
2023/06/12 00:21:08;;;;;;;7.20;6.60;;;19.00;99.90;;;;;;6108933;23;20444;-84
2023/06/12 00:23:35;;;;;;;9.80;6.57;;;;;;;;;;6105456;23;20431;-84
2023/06/12 00:26:02;;;;;;;7.00;6.50;;;18.90;99.90;;;;;;6105543;23;20482;-85
2023/06/12 00:28:29;;;;;;;8.13;6.97;;;18.90;99.90;;;;;;6110872;23;20397;-83
2023/06/12 00:30:56;;;;;;;8.00;6.60;;;18.90;99.90;;;;;;6125517;23;20477;-82
2023/06/12 00:33:23;;;;;;;9.17;6.57;;;18.90;99.90;;;;;;6124274;23;20534;-84
2023/06/12 00:35:51;;;;;;;7.80;6.90;;;18.80;99.90;;;;;;6105412;23;20947;-84
2023/06/12 00:38:18;;;;;;;7.90;6.00;;;18.70;99.90;;;;;;6104682;23;20413;-84
2023/06/12 00:40:45;;;;;;;7.60;6.53;;;18.70;99.90;;;;;;6104790;23;20410;-84
2023/06/12 00:43:12;;;;;;;7.60;6.33;;;;;;;;;;6104308;23;20772;-84
2023/06/12 00:45:39;;;;;;;7.03;6.40;;;18.80;99.90;;;;;;6104325;23;20926;-84
2023/06/12 00:48:07;;;;;;;7.77;6.07;;;18.60;99.90;;;;;;6103827;23;20929;-85
2023/06/12 00:50:35;;;;;;;6.33;5.83;;;18.60;99.90;;;;;;6106776;23;20469;-83
2023/06/12 00:53:03;;;;;;;6.50;5.80;;;18.60;99.90;;;;;;6116492;23;20413;-84
2023/06/12 00:55:32;;;;;;;6.17;5.67;;;18.60;99.90;;;;;;6113160;23;20427;-84
2023/06/12 00:57:59;;;;;;;7.40;6.70;;;18.50;99.90;;;;;;6110406;23;20438;-84
2023/06/12 01:00:27;;;;;;;7.90;6.73;;;18.60;99.90;;;;;;6110126;23;20761;-84
2023/06/12 01:02:56;;;;;;;5.97;5.47;;;18.60;99.90;;;;;;6101682;23;20740;-84
2023/06/12 01:05:32;;;;;;;6.60;5.93;;;18.50;99.90;;;;;;6101221;23;20766;-84
2023/06/12 01:08:10;;;;;;;6.33;5.80;;;18.30;1.00;;;;;;6102389;23;20394;-84
2023/06/12 01:10:42;;;;;;;8.03;6.33;;;18.40;99.90;;;;;;6102868;23;20394;-84
2023/06/12 01:13:10;;;;;;;9.60;6.53;;;18.30;1.00;;;;;;6102733;23;20887;-84
2023/06/12 01:15:38;;;;;;;7.67;5.90;;;18.20;99.90;;;;;;6105852;23;20434;-85
2023/06/12 01:18:06;;;;;;;6.10;5.50;;;18.20;99.90;;;;;;6104634;23;20429;-86
2023/06/12 01:20:34;;;;;;;6.37;5.53;;;18.20;99.90;;;;;;6103764;23;20415;-85
2023/06/12 01:23:11;;;;;;;8.70;5.30;;;18.20;99.90;;;;;;6104013;23;20738;-85
2023/06/12 01:26:36;;;;;;;6.30;5.70;;;18.20;99.90;;;;;;6104651;23;20716;-85
2023/06/12 01:29:37;;;;;;;6.10;5.10;;;17.40;1.00;;;;;;6030790;23;20397;-85
2023/06/12 01:32:08;;;;;;;6.83;5.77;;;17.90;1.00;;;;;;6021989;23;20448;-85
2023/06/12 01:34:50;;;;;;;9.37;5.03;;;18.10;99.90;;;;;;6093746;23;20524;-85
2023/06/12 01:37:25;;;;;;;4.80;4.40;;;18.10;99.90;;;;;;6104290;23;20434;-85
2023/06/12 01:39:57;;;;;;;5.20;4.80;;;18.10;99.90;;;;;;6108197;23;20428;-85
2023/06/12 01:42:25;;;;;;;5.80;5.23;;;18.20;99.90;;;;;;6104434;23;20404;-86
2023/06/12 01:44:52;;;;;;;5.77;5.30;;;18.00;99.90;;;;;;6104267;23;20501;-85
2023/06/12 01:47:21;;;;;;;8.07;4.90;;;18.00;99.90;;;;;;6103829;23;20410;-85
2023/06/12 01:49:48;;;;;;;7.17;5.53;;;17.90;99.90;;;;;;6104327;23;20479;-85
2023/06/12 01:52:15;;;;;;;7.73;5.83;;;17.90;99.90;;;;;;6104978;23;20414;-85
2023/06/12 01:54:45;;;;;;;10.83;5.13;;;17.80;1.00;;;;;;6103514;23;20513;-85
2023/06/12 01:57:12;;;;;;;6.97;5.27;;;17.80;99.90;;;;;;6106734;23;20389;-85
2023/06/12 01:59:39;;;;;;;5.47;5.07;;;17.80;99.90;;;;;;6108443;23;20506;-83
2023/06/12 02:02:06;;;;;;;6.17;5.30;;;17.60;99.90;;;;;;6124909;23;20389;-84
2023/06/12 02:04:35;;;;;;;6.10;5.50;;;17.70;99.90;;;;;;6120105;23;20444;-85
2023/06/12 02:07:02;;;;;;;5.50;5.00;;;17.70;99.90;;;;;;6104057;23;20493;-85
2023/06/12 02:09:29;;;;;;;5.70;5.20;;;17.70;99.90;;;;;;6104837;23;20406;-85
2023/06/12 02:11:56;;;;;;;5.67;5.17;;;17.60;99.90;;;;;;6105128;23;20768;-85
2023/06/12 02:14:23;;;;;;;5.43;4.93;;;17.60;99.90;;;;;;6107841;23;20481;-84
2023/06/12 02:16:53;;;;;;;5.13;4.73;;;17.60;99.90;;;;;;6115687;23;20434;-84
2023/06/12 02:19:22;;;;;;;5.90;5.27;;;17.50;99.90;;;;;;6107110;23;20417;-84
2023/06/12 02:21:50;;;;;;;8.10;5.07;;;17.50;99.90;;;;;;6116540;23;20469;-83
2023/06/12 02:24:17;;;;;;;5.63;5.20;;;17.00;1.00;;;;;;6114109;23;20429;-84
2023/06/12 02:26:44;;;;;;;8.10;4.83;;;17.50;99.90;;;;;;6105244;23;20414;-84
2023/06/12 02:29:12;;;;;;;5.30;4.83;;;17.50;99.90;;;;;;6103392;23;20441;-84
2023/06/12 02:31:39;;;;;;;5.30;4.80;;;17.40;99.90;;;;;;6103549;23;20414;-84
2023/06/12 02:34:07;;;;;;;5.80;4.20;;;17.40;99.90;;;;;;6103285;23;20501;-84
2023/06/12 02:36:39;;;;;;;5.10;4.57;;;17.30;99.90;;;;;;6102883;23;20746;-84
2023/06/12 02:39:08;;;;;;;4.90;4.40;;;17.50;99.90;;;;;;6103629;23;20681;-84
2023/06/12 02:41:35;;;;;;;5.40;4.90;;;17.20;99.90;;;;;;6108115;23;20493;-83
2023/06/12 02:44:02;;;;;;;10.33;6.50;;;;;;;;;;6112123;23;20426;-84
2023/06/12 02:46:28;;;;;;;5.60;5.10;;;17.10;99.90;;;;;;6110275;23;20830;-84
2023/06/12 02:48:55;;;;;;;6.60;5.60;;;17.10;99.90;;;;;;6107175;23;20501;-84
2023/06/12 02:51:22;;;;;;;6.10;5.30;;;17.20;99.90;;;;;;6109877;23;20410;-84
2023/06/12 02:53:49;;;;;;;10.63;6.07;;;16.90;99.90;;;;;;6106277;23;20503;-84
2023/06/12 02:56:17;;;;;;;11.20;5.73;;;16.90;99.90;;;;;;6102340;23;20808;-84
2023/06/12 02:58:44;;;;;;;9.03;5.23;;;16.90;99.90;;;;;;6102359;23;20416;-85
2023/06/12 03:01:11;;;;;;;4.90;4.50;;;16.70;99.90;;;;;;6103160;23;20414;-84
2023/06/12 03:03:39;;;;;;;7.30;6.17;;;16.80;99.90;;;;;;6104522;23;20473;-84
2023/06/12 03:06:06;;;;;;;5.40;5.00;;;16.90;99.90;;;;;;6102180;23;20458;-84
2023/06/12 03:08:33;;;;;;;9.60;6.23;;;16.90;99.90;;;;;;6102694;23;20438;-84
2023/06/12 03:11:01;;;;;;;6.27;5.23;;;16.90;99.90;;;;;;6102653;23;20418;-84
2023/06/12 03:13:29;;;;;;;5.87;5.37;;;16.70;99.90;;;;;;6102640;23;20457;-84
2023/06/12 03:15:56;;;;;;;6.77;5.30;;;16.70;99.90;;;;;;6103434;23;20454;-85
2023/06/12 03:18:23;;;;;;;5.80;5.00;;;16.70;99.90;;;;;;6102774;23;20441;-84
2023/06/12 03:20:50;;;;;;;7.30;6.30;;;;;;;;;;6105977;23;20844;-87
2023/06/12 03:23:17;;;;;;;6.47;5.97;;;16.50;99.90;;;;;;6112947;23;20454;-86
2023/06/12 03:25:47;;;;;;;5.83;5.20;;;;;;;;;;6109673;23;20418;-88
2023/06/12 03:28:15;;;;;;;6.40;5.80;;;;;;;;;;6107874;23;20417;-87
2023/06/12 03:30:48;;;;;;;6.80;5.60;;;;;;;;;;6117436;23;20470;-86
2023/06/12 03:33:15;;;;;;;7.37;5.73;;;;;;;;;;6121563;23;20405;-87
2023/06/12 03:35:47;;;;;;;6.00;5.20;;;;;;;;;;6113607;23;20460;-87
2023/06/12 03:38:16;;;;;;;6.23;5.10;;;;;;;;;;6111160;23;20842;-87
2023/06/12 03:40:48;;;;;;;5.30;4.90;;;16.30;99.90;;;;;;6106789;23;20527;-87
2023/06/12 03:43:15;;;;;;;6.27;5.60;;;;;;;;;;6109435;23;20402;-87
2023/06/12 03:45:42;;;;;;;8.70;5.40;;;;;;;;;;6108753;23;20414;-87
2023/06/12 03:48:10;;;;;;;6.73;5.43;;;16.30;99.90;;;;;;6106714;23;20410;-87
2023/06/12 03:50:37;;;;;;;8.80;5.97;;;16.10;99.90;;;;;;6107786;23;20430;-87
2023/06/12 03:53:04;;;;;;;9.80;5.97;;;16.10;99.90;;;;;;6107145;23;20451;-87
2023/06/12 03:55:32;;;;;;;5.90;5.20;;;16.10;99.90;;;;;;6109648;23;20454;-87
2023/06/12 03:58:00;;;;;;;9.67;5.50;;;16.00;99.90;;;;;;6109193;23;20889;-87
2023/06/12 04:00:27;;;;;;;13.80;5.90;;;16.10;99.90;;;;;;6117383;23;20430;-86
2023/06/12 04:02:54;;;;;;;6.07;5.47;;;;;;;;;;6105833;23;20725;-88
2023/06/12 04:05:23;;;;;;;5.90;5.40;;;16.20;99.90;;;;;;6106593;23;20444;-87
2023/06/12 04:07:50;;;;;;;6.50;5.90;;;16.50;1.00;;;;;;6104757;23;20740;-87
2023/06/12 04:10:16;;;;;;;4.87;4.47;;;16.40;99.90;;;;;;6104995;23;20976;-88
2023/06/12 04:12:44;;;;;;;6.80;5.90;;;;;;;;;;6105568;23;20463;-87
2023/06/12 04:15:10;;;;;;;5.90;5.40;;;16.50;99.90;;;;;;6110637;23;20473;-87
2023/06/12 04:17:38;;;;;;;8.90;6.27;;;;;;;;;;6106369;23;20806;-87
2023/06/12 04:20:06;;;;;;;5.73;4.97;;;16.50;99.90;;;;;;6114523;23;20422;-87
2023/06/12 04:22:35;;;;;;;9.87;6.80;;;16.60;99.90;;;;;;6125200;23;20414;-87
2023/06/12 04:25:05;;;;;;;13.33;11.50;;;16.60;99.90;;;;;;6116221;23;20424;-87
2023/06/12 04:27:33;;;;;;;9.13;5.13;;;16.70;99.90;;;;;;6117804;23;20426;-87
2023/06/12 04:29:59;;;;;;;6.13;5.60;;;16.60;99.90;;;;;;6114332;23;20442;-87
2023/06/12 04:32:29;;;;;;;8.37;5.43;;;16.80;99.90;;;;;;6112608;23;20412;-87
2023/06/12 04:34:56;;;;;;;5.90;4.90;;;;;;;;;;6110807;23;20442;-87
2023/06/12 04:37:23;;;;;;;6.67;5.17;;;16.70;99.90;;;;;;6110830;23;20420;-87
2023/06/12 04:39:52;;;;;;;7.10;4.90;;;16.60;99.90;;;;;;6108859;23;20430;-87
2023/06/12 04:42:19;;;;;;;6.77;5.40;;;16.60;99.90;;;;;;6108813;23;20427;-87
2023/06/12 04:44:47;;;;;;;5.20;4.63;;;16.50;99.90;;;;;;6116861;23;20405;-87
2023/06/12 04:47:14;;;;;;;5.10;4.67;;;;;;;;;;6112052;23;20414;-88
2023/06/12 04:49:45;;;;;;;6.17;4.30;;;16.90;99.90;;;;;;6108387;23;20435;-88
2023/06/12 04:52:13;;;;;;;7.40;4.67;;;17.30;1.00;;;;;;6120500;23;20401;-88
2023/06/12 04:54:44;;;;;;;5.47;4.67;;;;;;;;;;6119174;23;20470;-88
2023/06/12 04:57:13;;;;;;;5.70;4.87;;;17.10;99.90;;;;;;6115250;23;20714;-88
2023/06/12 04:59:42;;;;;;;5.60;4.80;;;;;;;;;;6110243;23;20441;-88
2023/06/12 05:02:09;;;;;;;13.47;5.40;;;17.60;1.00;;;;;;6112074;23;20422;-88
2023/06/12 05:04:37;;;;;;;6.93;5.00;;;17.50;1.00;;;;;;6121425;23;20402;-84
2023/06/12 05:07:06;;;;;;;6.80;4.60;;;17.10;99.90;;;;;;6125579;23;20515;-87
2023/06/12 05:09:33;;;;;;;11.97;5.50;;;;;;;;;;6121971;23;20420;-88
2023/06/12 05:12:02;;;;;;;6.90;4.73;;;17.90;1.00;;;;;;6112230;23;20414;-88
2023/06/12 05:14:32;;;;;;;10.93;5.00;;;17.60;99.90;;;;;;6107244;23;20809;-88
2023/06/12 05:17:00;;;;;;;5.90;5.00;;;17.70;99.90;;;;;;6108590;23;20405;-87
2023/06/12 05:19:27;;;;;;;6.43;5.13;;;17.80;99.90;;;;;;6107899;23;20445;-87
2023/06/12 05:21:54;;;;;;;10.65;5.78;;;17.80;99.90;;;;;;6108357;23;20438;-88
2023/06/12 05:24:21;;;;;;;7.17;4.43;;;18.30;1.00;;;;;;6108444;23;20174;-87
2023/06/12 05:26:50;;;;;;;7.00;4.90;;;;;;;;;;6115267;23;20437;-87
2023/06/12 05:29:17;;;;;;;8.10;5.00;;;18.00;99.90;;;;;;6112889;23;20441;-88
2023/06/12 05:31:48;;;;;;;5.60;4.97;;;17.90;1.00;;;;;;6113498;23;20421;-88
2023/06/12 05:34:15;;;;;;;6.70;6.10;;;;;;;;;;6124926;23;20367;-87
2023/06/12 05:36:42;;;;;;;14.57;5.07;;;;;;;;;;6124924;23;20470;-85
2023/06/12 05:39:10;;;;;;;7.33;5.23;;;;;;;;;;6117947;23;20418;-85
2023/06/12 05:41:37;;;;;;;5.60;4.53;;;;;;;;;;6125317;23;20418;-85
2023/06/12 05:44:05;;;;;;;5.00;4.50;;;18.50;1.00;;;;;;6125304;23;20427;-86
2023/06/12 05:46:34;;;;;;;6.87;4.70;;;18.50;99.90;;;;;;6124317;23;20418;-87
2023/06/12 05:49:03;;;;;;;8.70;4.77;;;;;;;;;;6104797;23;20436;-86
2023/06/12 05:51:30;;;;;;;5.83;4.77;;;;;;;;;;6104018;23;20922;-88
2023/06/12 05:53:57;;;;;;;4.47;4.07;;;18.70;99.90;;;;;;6105993;23;20406;-88
2023/06/12 05:56:24;;;;;;;5.80;4.20;;;18.70;1.00;;;;;;6105651;23;20532;-87
2023/06/12 05:58:52;;;;;;;9.23;4.47;;;;;;;;;;6104617;23;20446;-85
2023/06/12 06:01:22;;;;;;;5.23;4.73;;;18.80;99.90;;;;;;6103396;23;20493;-87
2023/06/12 06:03:50;;;;;;;6.53;4.70;;;;;;;;;;6106551;23;20416;-88
2023/06/12 06:06:19;;;;;;;7.10;5.13;;;19.10;1.00;;;;;;6106917;23;20779;-87
2023/06/12 06:08:46;;;;;;;6.00;4.47;;;;;;;;;;6105879;23;20405;-88
2023/06/12 06:11:13;;;;;;;15.90;5.43;;;19.00;99.90;;;;;;6110800;23;20457;-87
2023/06/12 06:13:42;;;;;;;5.83;5.03;;;19.00;99.90;;;;;;6118798;23;20414;-87
2023/06/12 06:16:10;;;;;;;4.57;4.27;;;18.90;99.90;;;;;;6120336;23;20454;-88
2023/06/12 06:18:37;;;;;;;5.17;4.67;;;19.20;99.90;;;;;;6115508;23;20879;-88
2023/06/12 06:21:05;;;;;;;5.60;4.90;;;;;;;;;;6113587;23;20453;-87
2023/06/12 06:23:33;;;;;;;10.73;5.23;;;19.30;99.90;;;;;;6110127;23;20485;-88
2023/06/12 06:26:01;;;;;;;11.63;4.87;;;19.40;1.00;;;;;;6104919;23;20744;-87
2023/06/12 06:28:28;;;;;;;7.87;4.40;;;19.40;99.90;;;;;;6105700;23;20409;-86
2023/06/12 06:30:55;;;;;;;8.13;4.83;;;19.50;99.90;;;;;;6104333;23;20737;-87
2023/06/12 06:33:22;;;;;;;8.13;5.33;;;19.60;99.90;;;;;;6109652;23;20410;-88
2023/06/12 06:35:50;;;;;;;15.03;4.20;;;19.60;99.90;;;;;;6111001;23;20443;-87
2023/06/12 06:38:21;;;;;;;6.33;4.70;;;19.60;99.90;;;;;;6111403;23;20398;-87
2023/06/12 06:40:49;;;;;;;8.17;4.37;;;19.60;99.90;;;;;;6107300;23;20469;-88
2023/06/12 06:46:25;;;;;;;6.80;4.83;;;;;;;;;;6102687;23;20410;-87
2023/06/12 06:48:52;;;;;;;8.57;5.20;;;;;;;;;;6106952;23;20446;-87
2023/06/12 06:51:20;;;;;;;9.63;5.70;;;;;;;;;;6103537;23;20410;-87
2023/06/12 06:53:47;;;;;;;5.97;4.93;;;;;;;;;;6111193;23;20409;-87
2023/06/12 06:56:16;;;;;;;6.03;4.80;;;20.20;99.90;;;;;;6117929;23;20450;-88
2023/06/12 06:58:43;;;;;;;5.57;4.97;;;;;;;;;;6120606;23;20390;-86
2023/06/12 07:01:11;;;;;;;11.53;4.93;;;;;;;;;;6120641;23;20421;-87
2023/06/12 07:03:38;;;;;;;6.93;5.00;;;;;;;;;;6105253;23;20449;-87
2023/06/12 07:06:06;;;;;;;6.30;4.90;;;;;;;;;;6107833;23;20434;-87
2023/06/12 07:08:33;;;;;;;7.03;4.60;;;;;;;;;;6108160;23;20402;-88
2023/06/12 07:11:04;;;;;;;15.03;5.17;;;;;;;;;;6108073;23;20438;-87
2023/06/12 07:13:35;;;;;;;4.90;4.33;;;;;;;;;;6112827;23;20407;-87
2023/06/12 07:16:02;;;;;;;7.33;5.20;;;;;;;;;;6113850;23;20434;-88
2023/06/12 07:18:29;;;;;;;6.03;5.07;;;;;;;;;;6118008;23;20716;-86
2023/06/12 07:20:56;;;;;;;5.77;4.87;;;;;;;;;;6119515;23;20464;-88
2023/06/12 07:23:24;;;;;;;6.43;4.80;;;;;;;;;;6126323;23;20420;-88
2023/06/12 07:25:56;;;;;;;6.00;4.73;;;21.10;99.90;;;;;;6118326;23;20504;-88
2023/06/12 07:28:23;;;;;;;6.00;5.10;;;21.10;99.90;;;;;;6113306;23;20379;-88
2023/06/12 07:30:53;;;;;;;6.40;4.33;;;21.30;99.90;;;;;;6107414;23;20442;-88
2023/06/12 07:33:22;;;;;;;5.67;4.40;;;21.40;99.90;;;;;;6111750;23;20441;-89
2023/06/12 07:35:50;;;;;;;4.80;4.10;;;;;;;;;;6110105;23;21013;-87
2023/06/12 07:38:22;;;;;;;6.83;5.23;;;21.70;99.90;;;;;;6107813;23;20417;-88
2023/06/12 07:40:49;;;;;;;6.37;5.40;;;;;;;;;;6116534;23;20427;-87
2023/06/12 07:43:34;;;;;;;6.07;5.53;;;22.20;1.00;;;;;;6126427;23;20476;-87
2023/06/12 07:46:05;;;;;;;6.70;5.30;;;21.90;1.00;;;;;;6125989;23;20378;-88
2023/06/12 07:48:32;;;;;;;5.77;4.93;;;;;;;;;;6118012;23;20724;-88
2023/06/12 07:50:59;;;;;;;5.40;4.93;;;;;;;;;;6118496;23;20437;-87
2023/06/12 07:53:26;;;;;;;8.00;4.70;;;;;;;;;;6126042;23;20410;-85
2023/06/12 07:55:54;;;;;;;6.70;4.97;;;;;;;;;;6123936;23;20457;-87
2023/06/12 07:58:21;;;;;;;7.43;5.47;;;21.90;1.00;;;;;;6113221;23;20412;-87
2023/06/12 08:00:48;;;;;;;6.87;4.53;;;;;;;;;;6112683;23;20493;-88
2023/06/12 08:03:17;;;;;;;11.80;5.27;;;22.30;99.90;;;;;;6109736;23;20399;-87
2023/06/12 08:05:44;;;;;;;6.90;4.93;;;22.40;99.90;;;;;;6108729;23;20493;-87
2023/06/12 08:08:13;;;;;;;9.90;8.47;;;22.50;99.90;;;;;;6123561;23;20414;-87
2023/06/12 08:10:39;;;;;;;9.33;8.37;;;22.40;99.90;;;;;;6110431;23;20757;-87
2023/06/12 08:13:09;;;;;;;7.13;5.00;;;22.60;99.90;;;;;;6118150;23;20429;-85
2023/06/12 08:15:40;;;;;;;9.50;4.13;;;;;;;;;;6108061;23;20500;-89
2023/06/12 08:18:28;;;;;;;5.27;4.77;;;22.70;99.90;;;;;;6109720;23;20414;-88
2023/06/12 08:21:02;;;;;;;7.00;4.20;;;;;;;;;;6105223;23;20438;-87
2023/06/12 08:23:48;;;;;;;11.70;5.13;;;;;;;;;;6112284;23;20433;-88
2023/06/12 08:26:20;;;;;;;5.90;4.67;;;23.00;99.90;;;;;;6117638;23;20478;-88
2023/06/12 08:28:59;;;;;;;15.83;5.77;;;;;;;;;;6111930;23;20497;-87
2023/06/12 08:31:35;;;;;;;5.50;4.40;;;23.10;99.90;;;;;;6111813;23;20433;-88
2023/06/12 08:34:10;;;;;;;4.00;3.70;;;;;;;;;;6118722;23;20390;-86
2023/06/12 08:36:38;;;;;;;6.43;4.60;;;;;;;;;;6125377;23;20405;-86
2023/06/12 08:39:28;;;;;;;3.90;3.60;;;;;;;;;;6120399;23;20496;-86
2023/06/12 08:42:15;;;;;;;7.13;5.00;;;23.10;99.90;;;;;;6107550;23;20414;-87
2023/06/12 08:44:46;;;;;;;6.60;5.53;;;23.20;99.90;;;;;;6090821;23;20414;-87
2023/06/12 08:47:31;;;;;;;9.70;5.80;;;23.20;99.90;;;;;;6106634;23;20434;-88
2023/06/12 08:50:08;;;;;;;11.90;8.27;;;23.20;99.90;;;;;;6106190;23;20448;-87
2023/06/12 08:52:38;;;;;;;8.40;6.20;;;23.30;99.90;;;;;;6108069;23;20421;-87
2023/06/12 08:55:12;;;;;;;8.80;7.90;;;23.80;1.00;;;;;;6106600;23;20449;-88
2023/06/12 08:57:41;;;;;;;19.87;9.20;;;;;;;;;;6112187;23;20363;-88
2023/06/12 09:00:13;;;;;;;10.27;9.27;;;23.30;99.90;;;;;;6110230;23;20426;-88
2023/06/12 09:02:44;;;;;;;7.67;6.90;;;23.50;99.90;;;;;;6111215;23;20481;-88
2023/06/12 09:05:17;;;;;;;6.00;5.40;;;23.50;99.90;;;;;;6109609;23;20418;-89
2023/06/12 09:07:50;;;;;;;7.13;4.83;;;23.70;99.90;;;;;;6109926;23;20394;-88
2023/06/12 09:10:18;;;;;;;5.07;4.57;;;;;;;;;;6109023;23;20449;-89
2023/06/12 09:16:12;;;;;;;6.23;4.13;;;23.80;99.90;;;;;;6103030;23;20386;-89
2023/06/12 09:18:48;;;;;;;4.77;4.37;;;;;;;;;;6107440;23;20503;-89
2023/06/12 09:21:17;;;;;;;6.57;4.30;;;23.80;99.90;;;;;;6112786;23;20461;-86
2023/06/12 09:23:45;;;;;;;9.03;8.13;;;23.60;99.90;;;;;;6114121;23;20401;-84
2023/06/12 09:26:15;;;;;;;7.07;5.30;;;23.70;99.90;;;;;;6115145;23;20441;-85
2023/06/12 09:28:43;;;;;;;6.80;4.57;;;23.90;99.90;;;;;;6118565;23;20410;-85
2023/06/12 09:31:10;;;;;;;6.43;4.33;;;23.80;99.90;;;;;;6116851;23;20437;-86
2023/06/12 09:33:39;;;;;;;5.70;5.10;;;24.00;99.90;;;;;;6116847;23;20795;-85
2023/06/12 09:36:06;;;;;;;5.93;5.20;;;24.10;99.90;;;;;;6117687;23;20402;-84
2023/06/12 09:38:35;;;;;;;5.77;4.27;;;24.00;99.90;;;;;;6119926;23;20391;-84
2023/06/12 09:41:04;;;;;;;5.50;4.27;;;24.00;99.90;;;;;;6111936;23;20423;-84
2023/06/12 09:43:31;;;;;;;5.10;4.60;;;;;;;;;;6116930;23;20418;-85
2023/06/12 09:45:58;;;;;;;7.60;5.17;;;24.00;99.90;;;;;;6118774;23;20501;-85
2023/06/12 09:48:26;;;;;;;7.47;4.60;;;;;;;;;;6115660;23;20413;-85
2023/06/12 09:50:53;;;;;;;6.63;4.83;;;24.00;99.90;;;;;;6115491;23;20434;-85
2023/06/12 09:53:22;;;;;;;6.40;4.53;;;;;;;;;;6115758;23;20414;-85
2023/06/12 09:55:52;;;;;;;13.77;5.00;;;24.00;99.90;;;;;;6115346;23;20406;-85
2023/06/12 09:58:20;;;;;;;9.90;5.03;;;24.20;99.90;;;;;;6124287;23;20401;-84
2023/06/12 10:00:47;;;;;;;4.50;4.10;;;24.20;99.90;;;;;;6121801;23;20433;-85
2023/06/12 10:03:16;;;;;;;6.20;5.07;;;24.20;1.00;;;;;;6116382;23;20411;-85
2023/06/12 10:05:48;;;;;;;7.13;4.80;;;24.10;99.90;;;;;;6115300;23;20461;-86
2023/06/12 10:08:16;;;;;;;5.67;4.70;;;;;;;;;;6117190;23;20403;-85
2023/06/12 10:10:44;;;;;;;5.60;5.07;;;24.00;99.90;;;;;;6117887;23;20418;-85
2023/06/12 10:13:14;;;;;;;7.53;5.60;;;23.80;99.90;;;;;;6119242;23;20421;-86
2023/06/12 10:15:47;;;;;;;8.10;5.30;;;23.70;99.90;;;;;;6120703;23;20414;-85
2023/06/12 10:18:14;;;;;;;10.17;5.53;;;;;;;;;;6122482;23;20481;-85
2023/06/12 10:20:42;;;;;;;5.00;4.60;;;23.60;99.90;;;;;;6115869;23;20501;-85
2023/06/12 10:23:10;;;;;;;6.10;5.27;;;23.70;99.90;;;;;;6114836;23;20473;-85
2023/06/12 10:25:37;;;;;;;8.83;5.30;;;23.70;1.00;;;;;;6119511;23;20434;-85
2023/06/12 10:28:05;;;;;;;12.73;8.53;;;23.30;99.90;;;;;;6121699;23;20426;-85
2023/06/12 10:30:33;;;;;;;6.73;6.00;;;23.90;99.90;;;;;;6122766;23;20418;-86
2023/06/12 10:33:14;;;;;;;6.63;5.90;;;23.40;99.90;;;;;;6123374;23;20434;-86
2023/06/12 10:35:41;;;;;;;6.80;5.10;;;;;;;;;;6122311;23;20394;-85
2023/06/12 10:38:12;;;;;;;7.73;5.23;;;23.20;99.90;;;;;;6124245;23;20406;-84
2023/06/12 10:40:41;;;;;;;8.67;5.90;;;23.40;99.90;;;;;;6119031;23;20436;-85
2023/06/12 10:43:09;;;;;;;5.90;5.40;;;23.70;99.90;;;;;;6111538;23;20449;-85
2023/06/12 10:45:37;;;;;;;6.03;5.43;;;24.00;99.90;;;;;;6106879;23;20410;-85
2023/06/12 10:48:24;;;;;;;7.63;6.90;;;24.70;99.90;;;;;;6108692;23;20446;-85
2023/06/12 10:51:08;;;;;;;4.97;4.47;;;24.70;99.90;;;;;;6113271;23;20445;-85
2023/06/12 10:53:35;;;;;;;6.43;4.87;;;;;;;;;;6112946;23;20410;-85
2023/06/12 10:56:05;;;;;;;5.33;4.83;;;24.70;99.90;;;;;;6119214;23;20433;-84
2023/06/12 10:58:36;;;;;;;7.83;5.57;;;24.70;99.90;;;;;;6124733;23;20394;-85
2023/06/12 11:01:09;;;;;;;5.33;4.83;;;24.90;99.90;;;;;;6118876;23;20418;-86
2023/06/12 11:03:39;;;;;;;6.93;5.30;;;25.00;99.90;;;;;;6116639;23;20386;-86
2023/06/12 11:06:13;;;;;;;5.77;5.20;;;24.90;99.90;;;;;;6117043;23;20406;-85
2023/06/12 11:08:41;;;;;;;13.13;4.60;;;24.90;99.90;;;;;;6116612;23;20419;-84
2023/06/12 11:11:09;;;;;;;5.70;5.20;;;24.90;99.90;;;;;;6116540;23;20497;-85
2023/06/12 11:13:39;;;;;;;8.40;5.00;;;25.10;99.90;;;;;;6115831;23;20441;-85
2023/06/12 11:16:07;;;;;;;6.23;5.70;;;25.30;99.90;;;;;;6115049;23;20394;-85
2023/06/12 11:18:34;;;;;;;6.10;5.07;;;25.20;99.90;;;;;;6115298;23;20410;-85
2023/06/12 11:21:01;;;;;;;6.60;5.67;;;;;;;;;;6119223;23;20430;-85
2023/06/12 11:23:29;;;;;;;6.47;5.87;;;25.10;99.90;;;;;;6109203;23;20444;-85
2023/06/12 11:25:59;;;;;;;6.83;6.23;;;25.10;99.90;;;;;;6117478;23;20433;-85
2023/06/12 11:28:29;;;;;;;6.63;4.80;;;24.90;99.90;;;;;;6118252;23;20406;-85
2023/06/12 11:30:56;;;;;;;6.10;5.50;;;24.50;99.90;;;;;;6116854;23;20430;-85
2023/06/12 11:33:25;;;;;;;5.53;5.03;;;24.40;99.90;;;;;;6116419;23;20464;-85
2023/06/12 11:35:53;;;;;;;5.30;4.77;;;24.30;99.90;;;;;;6118329;23;20445;-84
2023/06/12 11:38:21;;;;;;;5.53;5.03;;;24.40;99.90;;;;;;6117331;23;20405;-86
2023/06/12 11:40:50;;;;;;;6.30;5.80;;;24.50;99.90;;;;;;6117299;23;20497;-85
2023/06/12 11:43:18;;;;;;;5.97;5.47;;;24.50;99.90;;;;;;6116063;23;20421;-85
2023/06/12 11:45:45;;;;;;;8.70;5.33;;;24.30;99.90;;;;;;6115943;23;20421;-85
2023/06/12 11:48:14;;;;;;;5.50;5.00;;;24.30;99.90;;;;;;6120386;23;20488;-84
2023/06/12 11:50:44;;;;;;;5.80;5.30;;;24.30;99.90;;;;;;6107263;23;20430;-84
2023/06/12 11:53:11;;;;;;;8.80;5.17;;;24.50;99.90;;;;;;6111716;23;20417;-85
2023/06/12 11:55:38;;;;;;;9.53;6.57;;;24.70;99.90;;;;;;6121666;23;20432;-85
2023/06/12 11:58:06;;;;;;;8.63;5.30;;;25.10;99.90;;;;;;6115389;23;20406;-85
2023/06/12 12:00:34;;;;;;;5.00;4.60;;;25.00;99.90;;;;;;6107933;23;20498;-85
2023/06/12 12:03:03;;;;;;;6.10;5.67;;;25.20;99.90;;;;;;6109812;23;20414;-85
2023/06/12 12:05:34;;;;;;;7.33;5.83;;;25.20;99.90;;;;;;6111513;23;20788;-86
2023/06/12 12:08:03;;;;;;;8.30;6.00;;;24.90;1.00;;;;;;6114053;23;20430;-85
2023/06/12 12:10:33;;;;;;;8.70;4.77;;;25.30;99.90;;;;;;6125010;23;20440;-85
2023/06/12 12:13:01;;;;;;;9.20;5.60;;;25.60;99.90;;;;;;6122391;23;20414;-85
2023/06/12 12:15:29;;;;;;;7.90;6.37;;;25.60;99.90;;;;;;6117168;23;20457;-85
2023/06/12 12:17:56;;;;;;;6.00;5.50;;;25.60;99.90;;;;;;6117143;23;20413;-85
2023/06/12 12:20:25;;;;;;;6.03;4.93;;;25.60;99.90;;;;;;6116138;23;20449;-86
2023/06/12 12:22:53;;;;;;;5.80;5.30;;;25.20;99.90;;;;;;6114733;23;20891;-85
2023/06/12 12:25:23;;;;;;;8.30;5.20;;;25.10;99.90;;;;;;6114142;23;20485;-84
2023/06/12 12:27:51;;;;;;;6.60;6.00;;;25.30;99.90;;;;;;6121309;23;20453;-85
2023/06/12 12:30:18;;;;;;;9.23;5.90;;;25.30;99.90;;;;;;6115353;23;20434;-85
2023/06/12 12:32:47;;;;;;;5.37;4.80;;;25.00;99.90;;;;;;6116217;23;20494;-85
2023/06/12 12:35:14;;;;;;;9.30;6.03;;;24.60;99.90;;;;;;6111964;23;20736;-85
2023/06/12 12:37:42;;;;;;;5.53;5.03;;;24.80;1.00;;;;;;6113710;23;20442;-86
2023/06/12 12:40:10;;;;;;;5.87;4.73;;;24.40;99.90;;;;;;6116642;23;20442;-85
2023/06/12 12:42:39;;;;;;;6.70;6.10;;;24.80;1.00;;;;;;6114128;23;20433;-85
2023/06/12 12:45:08;;;;;;;10.80;5.60;;;24.70;99.90;;;;;;6113590;23;20425;-85
2023/06/12 12:47:35;;;;;;;8.30;6.70;;;24.70;99.90;;;;;;6115051;23;20452;-86
2023/06/12 12:50:03;;;;;;;4.80;4.50;;;;;;;;;;6114448;23;20462;-86
2023/06/12 12:52:31;;;;;;;11.13;5.10;;;24.80;1.00;;;;;;6114072;23;20429;-86
2023/06/12 12:54:57;;;;;;;5.60;4.50;;;25.00;1.00;;;;;;6114896;23;20437;-86
2023/06/12 12:57:31;;;;;;;7.50;4.90;;;;;;;;;;6113685;23;20402;-86
2023/06/12 13:00:00;;;;;;;9.40;5.53;;;24.80;99.90;;;;;;6116186;23;20460;-86
2023/06/12 13:02:27;;;;;;;6.57;5.23;;;24.70;1.00;;;;;;6114866;23;20414;-86
2023/06/12 13:04:54;;;;;;;7.30;4.77;;;25.30;1.00;;;;;;6114413;23;20802;-86
2023/06/12 13:07:21;;;;;;;6.60;5.00;;;25.40;99.90;;;;;;6114487;23;20476;-85
2023/06/12 13:09:48;;;;;;;4.80;4.17;;;25.20;99.90;;;;;;6113941;23;20433;-86
2023/06/12 13:12:15;;;;;;;5.20;4.20;;;25.20;99.90;;;;;;6114411;23;20421;-86
2023/06/12 13:14:43;;;;;;;13.13;5.37;;;25.30;99.90;;;;;;6113890;23;20406;-85
2023/06/12 13:17:14;;;;;;;4.40;4.00;;;25.30;99.90;;;;;;6114955;23;20399;-85
2023/06/12 13:19:41;;;;;;;5.67;4.90;;;25.30;99.90;;;;;;6116964;23;20502;-85
2023/06/12 13:22:08;;;;;;;6.60;4.73;;;;;;;;;;6121634;23;20417;-85
2023/06/12 13:24:38;;;;;;;6.43;4.20;;;;;;;;;;6120770;23;20413;-85
2023/06/12 13:27:07;;;;;;;5.00;4.30;;;25.30;99.90;;;;;;6118564;23;20446;-86
2023/06/12 13:29:35;;;;;;;11.97;6.40;;;;;;;;;;6115046;23;20434;-86